createdAt,value
2018-09-23T00:01:43.795Z,21.70
2018-09-23T00:04:12.683Z,21.58
2018-09-23T00:06:41.646Z,21.80
2018-09-23T00:09:10.803Z,21.87
2018-09-23T00:11:39.738Z,21.76
2018-09-23T00:14:09.103Z,21.93
2018-09-23T00:16:38.008Z,21.63
2018-09-23T00:19:07.203Z,21.90
2018-09-23T00:21:36.233Z,21.53
2018-09-23T00:24:05.160Z,20.59
2018-09-23T00:26:34.061Z,20.55
2018-09-23T00:29:03.104Z,20.60
2018-09-23T00:31:32.061Z,20.85
2018-09-23T00:34:00.971Z,20.74
2018-09-23T00:36:29.900Z,20.73
2018-09-23T00:38:58.846Z,20.87
2018-09-23T00:41:27.776Z,20.92
2018-09-23T00:43:56.686Z,20.24
2018-09-23T00:46:26.419Z,20.24
2018-09-23T00:48:55.373Z,19.98
2018-09-23T00:51:24.260Z,20.02
2018-09-23T00:53:53.147Z,20.12
2018-09-23T00:56:22.082Z,19.91
2018-09-23T00:58:50.970Z,20.04
2018-09-23T01:01:19.901Z,20.22
2018-09-23T01:03:48.815Z,20.35
2018-09-23T01:06:17.767Z,20.26
2018-09-23T01:08:46.663Z,20.61
2018-09-23T01:11:15.588Z,20.85
2018-09-23T01:13:44.478Z,21.04
2018-09-23T01:16:13.367Z,20.38
2018-09-23T01:18:42.272Z,20.25
2018-09-23T01:21:11.174Z,20.51
2018-09-23T01:23:40.131Z,20.11
2018-09-23T01:26:09.146Z,19.70
2018-09-23T01:28:38.459Z,19.62
2018-09-23T01:31:07.358Z,19.53
2018-09-23T01:33:36.320Z,19.52
2018-09-23T01:36:05.227Z,19.79
2018-09-23T01:38:40.234Z,19.91
2018-09-23T01:41:09.151Z,19.89
2018-09-23T01:43:38.066Z,20.01
2018-09-23T01:46:07.035Z,20.32
2018-09-23T01:48:35.919Z,20.48
2018-09-23T01:51:04.953Z,20.51
2018-09-23T01:53:33.854Z,20.18
2018-09-23T01:56:02.746Z,19.96
2018-09-23T01:58:31.639Z,19.93
2018-09-23T02:01:00.571Z,20.08
2018-09-23T02:03:29.472Z,20.44
2018-09-23T02:05:58.346Z,20.20
2018-09-23T02:08:27.263Z,19.68
2018-09-23T02:10:56.224Z,20.12
2018-09-23T02:13:25.265Z,20.05
2018-09-23T02:15:54.175Z,20.12
2018-09-23T02:18:23.145Z,19.99
2018-09-23T02:20:52.035Z,20.03
2018-09-23T02:23:20.961Z,20.25
2018-09-23T02:25:49.887Z,19.74
2018-09-23T02:28:18.806Z,19.55
2018-09-23T02:30:47.983Z,19.03
2018-09-23T02:33:16.953Z,19.24
2018-09-23T02:35:45.907Z,19.35
2018-09-23T02:38:14.797Z,19.46
2018-09-23T02:40:43.727Z,19.22
2018-09-23T02:43:12.662Z,19.51
2018-09-23T02:45:41.552Z,19.82
2018-09-23T02:48:10.476Z,19.82
2018-09-23T02:50:39.455Z,19.55
2018-09-23T02:53:08.355Z,19.66
2018-09-23T02:55:37.301Z,19.38
2018-09-23T02:58:06.347Z,19.24
2018-09-23T03:00:35.241Z,19.15
2018-09-23T03:03:04.132Z,19.00
2018-09-23T03:05:33.048Z,19.10
2018-09-23T03:08:01.935Z,18.87
2018-09-23T03:10:30.836Z,18.86
2018-09-23T03:12:59.745Z,19.08
2018-09-23T03:15:28.647Z,19.21
2018-09-23T03:17:57.543Z,18.78
2018-09-23T03:20:26.523Z,18.70
2018-09-23T03:22:55.425Z,18.89
2018-09-23T03:25:24.322Z,18.99
2018-09-23T03:27:53.236Z,19.27
2018-09-23T03:30:22.288Z,18.95
2018-09-23T03:32:51.174Z,18.80
2018-09-23T03:35:20.092Z,18.86
2018-09-23T03:37:49.003Z,18.55
2018-09-23T03:40:17.906Z,18.60
2018-09-23T03:42:47.041Z,18.81
2018-09-23T03:45:15.968Z,19.02
2018-09-23T03:47:44.875Z,19.19
2018-09-23T03:50:13.948Z,19.21
2018-09-23T03:52:42.841Z,19.27
2018-09-23T03:55:11.757Z,19.21
2018-09-23T03:57:40.643Z,19.10
2018-09-23T04:00:09.731Z,18.75
2018-09-23T04:02:38.627Z,18.83
2018-09-23T04:05:07.698Z,18.78
2018-09-23T04:07:36.583Z,18.94
2018-09-23T04:10:05.500Z,18.86
2018-09-23T04:12:34.390Z,19.04
2018-09-23T04:15:03.389Z,18.87
2018-09-23T04:17:32.303Z,19.01
2018-09-23T04:20:01.224Z,19.11
2018-09-23T04:22:30.118Z,19.14
2018-09-23T04:24:59.042Z,19.04
2018-09-23T04:27:28.069Z,18.71
2018-09-23T04:29:56.969Z,18.88
2018-09-23T04:32:25.874Z,19.01
2018-09-23T04:34:54.857Z,19.02
2018-09-23T04:37:23.805Z,19.02
2018-09-23T04:39:52.715Z,19.16
2018-09-23T04:42:21.609Z,19.08
2018-09-23T04:44:50.533Z,19.07
2018-09-23T04:47:19.528Z,19.03
2018-09-23T04:49:48.474Z,19.04
2018-09-23T04:52:17.372Z,19.07
2018-09-23T04:54:46.281Z,19.03
2018-09-23T04:57:15.185Z,19.04
2018-09-23T04:59:44.062Z,19.08
2018-09-23T05:02:12.966Z,19.05
2018-09-23T05:04:41.887Z,18.79
2018-09-23T05:07:10.814Z,19.33
2018-09-23T05:09:39.927Z,19.65
2018-09-23T05:12:08.887Z,19.93
2018-09-23T05:14:37.779Z,19.88
2018-09-23T05:17:06.791Z,20.08
2018-09-23T05:19:35.763Z,20.19
2018-09-23T05:22:04.825Z,19.82
2018-09-23T05:24:33.798Z,19.16
2018-09-23T05:27:02.704Z,18.89
2018-09-23T05:29:31.660Z,19.02
2018-09-23T05:32:00.547Z,18.95
2018-09-23T05:34:29.491Z,19.07
2018-09-23T05:36:58.395Z,18.98
2018-09-23T05:39:27.372Z,18.97
2018-09-23T05:41:56.348Z,19.09
2018-09-23T05:44:25.267Z,19.45
2018-09-23T05:46:54.188Z,19.70
2018-09-23T05:49:23.090Z,19.99
2018-09-23T05:51:52.088Z,19.57
2018-09-23T05:54:21.065Z,19.57
2018-09-23T05:56:49.974Z,19.75
2018-09-23T05:59:18.915Z,19.79
2018-09-23T06:01:47.868Z,19.91
2018-09-23T06:04:16.788Z,20.03
2018-09-23T06:06:45.689Z,20.09
2018-09-23T06:09:14.603Z,20.19
2018-09-23T06:11:43.596Z,20.20
2018-09-23T06:14:12.570Z,20.19
2018-09-23T06:16:41.463Z,19.69
2018-09-23T06:19:10.375Z,19.92
2018-09-23T06:21:39.325Z,20.07
2018-09-23T06:24:08.313Z,20.13
2018-09-23T06:26:37.329Z,20.09
2018-09-23T06:29:06.455Z,20.22
2018-09-23T06:31:35.494Z,20.44
2018-09-23T06:34:04.497Z,20.77
2018-09-23T06:36:33.552Z,20.90
2018-09-23T06:39:02.461Z,21.27
2018-09-23T06:41:31.402Z,21.23
2018-09-23T06:44:00.294Z,21.27
2018-09-23T06:46:29.268Z,21.47
2018-09-23T06:48:58.240Z,21.39
2018-09-23T06:51:27.273Z,21.32
2018-09-23T06:53:56.363Z,21.37
2018-09-23T06:56:25.337Z,21.37
2018-09-23T06:58:54.297Z,21.14
2018-09-23T07:01:23.233Z,21.26
2018-09-23T07:03:52.132Z,21.32
2018-09-23T07:06:21.027Z,21.40
2018-09-23T07:08:49.914Z,21.65
2018-09-23T07:11:18.811Z,21.80
2018-09-23T07:13:47.742Z,21.69
2018-09-23T07:16:16.690Z,21.70
2018-09-23T07:18:45.614Z,21.75
2018-09-23T07:21:14.589Z,21.77
2018-09-23T07:23:43.525Z,21.76
2018-09-23T07:26:12.468Z,21.71
2018-09-23T07:28:41.372Z,21.55
2018-09-23T07:31:10.524Z,21.62
2018-09-23T07:33:39.429Z,21.86
2018-09-23T07:36:08.302Z,22.03
2018-09-23T07:38:37.265Z,21.92
2018-09-23T07:41:06.178Z,21.97
2018-09-23T07:43:35.082Z,22.13
2018-09-23T07:46:04.023Z,21.95
2018-09-23T07:48:32.910Z,21.86
2018-09-23T07:51:01.812Z,21.91
2018-09-23T07:53:30.720Z,21.97
2018-09-23T07:55:59.608Z,22.08
2018-09-23T07:58:28.772Z,22.36
2018-09-23T08:00:58.163Z,22.53
2018-09-23T08:03:27.464Z,22.75
2018-09-23T08:05:56.686Z,22.84
2018-09-23T08:08:25.917Z,23.00
2018-09-23T08:10:55.284Z,23.11
2018-09-23T08:13:24.412Z,23.15
2018-09-23T08:15:53.387Z,23.07
2018-09-23T08:18:22.407Z,22.91
2018-09-23T08:20:51.364Z,23.13
2018-09-23T08:23:20.348Z,23.21
2018-09-23T08:25:49.284Z,23.33
2018-09-23T08:28:18.199Z,23.44
2018-09-23T08:30:47.158Z,23.47
2018-09-23T08:33:16.051Z,23.52
2018-09-23T08:35:45.279Z,23.06
2018-09-23T08:38:14.163Z,22.96
2018-09-23T08:40:43.062Z,23.18
2018-09-23T08:43:11.983Z,23.25
2018-09-23T08:45:40.886Z,23.38
2018-09-23T08:48:10.094Z,23.48
2018-09-23T08:50:39.295Z,23.17
2018-09-23T08:53:08.179Z,23.06
2018-09-23T08:55:37.045Z,23.20
2018-09-23T08:58:06.399Z,23.37
2018-09-23T09:00:35.290Z,23.44
2018-09-23T09:03:04.277Z,23.55
2018-09-23T09:05:33.367Z,23.60
2018-09-23T09:08:02.240Z,23.50
2018-09-23T09:10:31.148Z,23.64
2018-09-23T09:13:00.185Z,23.69
2018-09-23T09:15:29.084Z,23.64
2018-09-23T09:17:57.986Z,23.68
2018-09-23T09:20:26.995Z,23.75
2018-09-23T09:22:55.906Z,23.80
2018-09-23T09:25:24.958Z,23.86
2018-09-23T09:27:54.407Z,23.75
2018-09-23T09:30:23.308Z,23.52
2018-09-23T09:32:52.194Z,23.66
2018-09-23T09:35:21.175Z,23.48
2018-09-23T09:37:50.032Z,23.64
2018-09-23T09:40:18.915Z,23.75
2018-09-23T09:42:47.893Z,23.76
2018-09-23T09:45:16.771Z,23.79
2018-09-23T09:47:45.677Z,23.83
2018-09-23T09:50:14.583Z,23.78
2018-09-23T09:52:43.529Z,23.81
2018-09-23T09:55:12.502Z,23.77
2018-09-23T09:57:41.362Z,23.87
2018-09-23T10:00:10.364Z,23.88
2018-09-23T10:02:39.251Z,23.93
2018-09-23T10:05:08.310Z,24.07
2018-09-23T10:07:37.182Z,24.09
2018-09-23T10:10:06.103Z,24.13
2018-09-23T10:12:35.395Z,24.18
2018-09-23T10:15:04.611Z,24.21
2018-09-23T10:17:33.903Z,24.23
2018-09-23T10:20:02.788Z,24.23
2018-09-23T10:22:31.730Z,24.28
2018-09-23T10:25:00.574Z,24.37
2018-09-23T10:27:29.503Z,24.47
2018-09-23T10:29:58.371Z,24.64
2018-09-23T10:32:27.251Z,24.64
2018-09-23T10:34:56.335Z,24.69
2018-09-23T10:37:25.239Z,24.74
2018-09-23T10:39:54.132Z,24.76
2018-09-23T10:42:23.085Z,24.88
2018-09-23T10:44:52.095Z,24.90
2018-09-23T10:47:20.970Z,24.92
2018-09-23T10:49:49.928Z,24.93
2018-09-23T10:52:18.806Z,25.08
2018-09-23T10:54:47.776Z,25.09
2018-09-23T10:57:16.704Z,25.10
2018-09-23T10:59:45.620Z,25.21
2018-09-23T11:02:14.553Z,25.32
2018-09-23T11:04:43.428Z,25.42
2018-09-23T11:07:12.372Z,25.37
2018-09-23T11:09:41.318Z,25.37
2018-09-23T11:12:10.264Z,25.36
2018-09-23T11:14:39.171Z,25.49
2018-09-23T11:17:08.100Z,25.69
2018-09-23T11:19:37.041Z,25.66
2018-09-23T11:22:05.951Z,25.71
2018-09-23T11:24:34.877Z,25.66
2018-09-23T11:27:04.798Z,25.64
2018-09-23T11:29:33.751Z,25.77
2018-09-23T11:32:03.451Z,25.82
2018-09-23T11:34:32.415Z,25.79
2018-09-23T11:37:02.056Z,25.71
2018-09-23T11:39:31.036Z,25.77
2018-09-23T11:41:59.991Z,25.72
2018-09-23T11:44:28.903Z,25.71
2018-09-23T11:46:57.812Z,25.64
2018-09-23T11:49:26.696Z,25.78
2018-09-23T11:51:55.637Z,25.78
2018-09-23T11:54:24.569Z,25.82
2018-09-23T11:56:53.528Z,25.96
2018-09-23T11:59:22.475Z,25.95
2018-09-23T12:01:51.539Z,25.91
2018-09-23T12:04:20.523Z,25.95
2018-09-23T12:06:49.426Z,25.97
2018-09-23T12:09:18.327Z,26.05
2018-09-23T12:11:47.281Z,26.17
2018-09-23T12:14:16.193Z,26.23
2018-09-23T12:16:45.096Z,26.26
2018-09-23T12:19:14.051Z,26.45
2018-09-23T12:21:42.946Z,26.41
2018-09-23T12:24:11.901Z,26.24
2018-09-23T12:26:40.815Z,26.32
2018-09-23T12:29:09.713Z,26.41
2018-09-23T12:31:38.642Z,26.46
2018-09-23T12:34:07.667Z,26.43
2018-09-23T12:36:36.573Z,26.44
2018-09-23T12:39:08.639Z,26.45
2018-09-23T12:41:37.695Z,26.45
2018-09-23T12:44:06.896Z,26.46
2018-09-23T12:46:35.808Z,26.45
2018-09-23T12:49:04.751Z,26.41
2018-09-23T12:51:33.682Z,26.46
2018-09-23T12:54:02.592Z,26.54
2018-09-23T12:56:31.507Z,26.63
2018-09-23T12:59:00.412Z,26.70
2018-09-23T13:01:29.320Z,26.75
2018-09-23T13:03:58.279Z,26.80
2018-09-23T13:06:27.164Z,26.86
2018-09-23T13:08:56.092Z,26.85
2018-09-23T13:11:24.998Z,26.82
2018-09-23T13:13:53.870Z,26.85
2018-09-23T13:16:22.827Z,26.89
2018-09-23T13:18:51.789Z,26.89
2018-09-23T13:21:20.695Z,26.97
2018-09-23T13:23:49.585Z,27.08
2018-09-23T13:26:18.705Z,27.16
2018-09-23T13:28:47.668Z,27.09
2018-09-23T13:31:17.651Z,27.11
2018-09-23T13:33:46.657Z,27.13
2018-09-23T13:36:15.544Z,27.09
2018-09-23T13:38:44.478Z,27.22
2018-09-23T13:41:13.377Z,27.26
2018-09-23T13:43:42.282Z,27.28
2018-09-23T13:46:11.205Z,27.17
2018-09-23T13:48:40.134Z,27.22
2018-09-23T13:51:09.089Z,27.25
2018-09-23T13:53:38.011Z,27.38
2018-09-23T13:56:06.939Z,27.40
2018-09-23T13:58:36.966Z,27.42
2018-09-23T14:01:06.176Z,27.37
2018-09-23T14:03:35.159Z,27.35
2018-09-23T14:06:04.055Z,27.28
2018-09-23T14:08:32.966Z,27.29
2018-09-23T14:11:01.894Z,27.39
2018-09-23T14:13:30.918Z,27.26
2018-09-23T14:15:59.990Z,27.20
2018-09-23T14:18:28.968Z,27.19
2018-09-23T14:20:57.915Z,27.26
2018-09-23T14:23:26.965Z,27.26
2018-09-23T14:25:55.907Z,27.30
2018-09-23T14:28:24.804Z,27.38
2018-09-23T14:30:53.698Z,27.30
2018-09-23T14:33:25.355Z,27.31
2018-09-23T14:35:54.363Z,27.26
2018-09-23T14:38:23.254Z,27.24
2018-09-23T14:40:52.231Z,27.23
2018-09-23T14:43:21.135Z,27.28
2018-09-23T14:45:50.059Z,27.30
2018-09-23T14:48:18.983Z,27.31
2018-09-23T14:50:47.967Z,27.28
2018-09-23T14:53:16.862Z,27.29
2018-09-23T14:55:45.748Z,27.27
2018-09-23T14:58:14.643Z,27.28
2018-09-23T15:00:43.658Z,27.29
2018-09-23T15:03:12.608Z,27.23
2018-09-23T15:05:41.541Z,27.20
2018-09-23T15:08:10.473Z,27.10
2018-09-23T15:10:39.375Z,27.08
2018-09-23T15:13:08.363Z,27.06
2018-09-23T15:15:37.267Z,27.08
2018-09-23T15:18:06.250Z,27.04
2018-09-23T15:20:35.167Z,27.02
2018-09-23T15:23:04.091Z,26.93
2018-09-23T15:25:33.039Z,26.98
2018-09-23T15:28:02.002Z,26.95
2018-09-23T15:30:30.997Z,27.01
2018-09-23T15:32:59.908Z,27.00
2018-09-23T15:35:28.961Z,26.94
2018-09-23T15:37:57.880Z,26.93
2018-09-23T15:40:26.778Z,26.87
2018-09-23T15:42:55.683Z,26.78
2018-09-23T15:45:24.579Z,26.79
2018-09-23T15:47:53.596Z,26.70
2018-09-23T15:50:22.510Z,26.69
2018-09-23T15:52:51.428Z,26.53
2018-09-23T15:55:20.325Z,26.55
2018-09-23T15:57:49.359Z,26.48
2018-09-23T16:00:18.323Z,26.43
2018-09-23T16:02:47.258Z,26.28
2018-09-23T16:05:16.161Z,26.28
2018-09-23T16:07:45.135Z,26.28
2018-09-23T16:10:14.128Z,26.28
2018-09-23T16:12:43.015Z,26.18
2018-09-23T16:15:11.928Z,26.14
2018-09-23T16:17:40.909Z,26.10
2018-09-23T16:20:10.109Z,26.00
2018-09-23T16:22:39.012Z,25.99
2018-09-23T16:25:07.969Z,25.92
2018-09-23T16:27:36.879Z,26.01
2018-09-23T16:30:05.876Z,25.88
2018-09-23T16:32:34.827Z,25.85
2018-09-23T16:35:03.792Z,25.70
2018-09-23T16:37:32.771Z,25.68
2018-09-23T16:40:01.698Z,25.72
2018-09-23T16:42:30.643Z,25.69
2018-09-23T16:44:59.551Z,25.64
2018-09-23T16:47:28.518Z,25.62
2018-09-23T16:49:57.463Z,25.64
2018-09-23T16:52:26.417Z,25.59
2018-09-23T16:54:55.372Z,25.55
2018-09-23T16:57:24.252Z,25.51
2018-09-23T16:59:53.160Z,25.45
2018-09-23T17:02:22.052Z,25.39
2018-09-23T17:04:51.034Z,25.35
2018-09-23T17:07:20.031Z,25.30
2018-09-23T17:09:48.911Z,25.34
2018-09-23T17:12:17.813Z,25.33
2018-09-23T17:14:46.685Z,25.29
2018-09-23T17:17:15.600Z,25.28
2018-09-23T17:19:44.587Z,25.24
2018-09-23T17:22:13.650Z,25.27
2018-09-23T17:24:42.594Z,25.20
2018-09-23T17:27:11.570Z,25.16
2018-09-23T17:29:40.544Z,25.10
2018-09-23T17:32:09.461Z,25.04
2018-09-23T17:34:38.366Z,25.03
2018-09-23T17:37:07.295Z,25.02
2018-09-23T17:39:36.208Z,25.04
2018-09-23T17:42:05.164Z,25.06
2018-09-23T17:44:34.142Z,25.12
2018-09-23T17:47:03.075Z,25.13
2018-09-23T17:49:32.060Z,25.15
2018-09-23T17:52:00.999Z,25.18
2018-09-23T17:54:29.984Z,25.19
2018-09-23T17:56:58.886Z,25.14
2018-09-23T17:59:27.859Z,25.14
2018-09-23T18:01:56.868Z,25.12
2018-09-23T18:04:25.771Z,25.11
2018-09-23T18:06:54.690Z,24.93
2018-09-23T18:09:23.612Z,24.90
2018-09-23T18:11:52.643Z,24.83
2018-09-23T18:14:21.744Z,24.69
2018-09-23T18:16:50.719Z,24.60
2018-09-23T18:19:20.317Z,24.42
2018-09-23T18:21:49.845Z,24.34
2018-09-23T18:24:18.863Z,24.27
2018-09-23T18:26:48.062Z,24.22
2018-09-23T18:29:17.073Z,24.15
2018-09-23T18:31:46.068Z,24.08
2018-09-23T18:34:15.115Z,23.95
2018-09-23T18:36:44.206Z,23.86
2018-09-23T18:39:13.847Z,23.82
2018-09-23T18:41:42.788Z,23.75
2018-09-23T18:44:11.909Z,23.72
2018-09-23T18:46:42.365Z,23.64
2018-09-23T18:49:12.280Z,23.61
2018-09-23T18:51:42.503Z,23.53
2018-09-23T18:54:16.621Z,23.45
2018-09-23T18:56:45.756Z,23.40
2018-09-23T18:59:14.820Z,23.35
2018-09-23T19:01:43.834Z,23.26
2018-09-23T19:04:12.853Z,23.23
2018-09-23T19:06:41.842Z,23.24
2018-09-23T19:09:10.828Z,23.16
2018-09-23T19:11:39.880Z,23.16
2018-09-23T19:14:12.215Z,23.14
2018-09-23T19:16:42.059Z,23.11
2018-09-23T19:19:11.170Z,23.03
2018-09-23T19:21:40.146Z,22.91
2018-09-23T19:24:09.183Z,22.87
2018-09-23T19:26:38.251Z,22.85
2018-09-23T19:29:07.214Z,22.78
2018-09-23T19:31:36.240Z,22.73
2018-09-23T19:34:05.197Z,22.68
2018-09-23T19:36:34.212Z,22.63
2018-09-23T19:39:03.621Z,22.60
2018-09-23T19:41:33.488Z,22.58
2018-09-23T19:44:02.541Z,22.47
2018-09-23T19:46:31.484Z,22.34
2018-09-23T19:49:00.496Z,22.42
2018-09-23T19:51:29.458Z,22.37
2018-09-23T19:53:58.452Z,22.34
2018-09-23T19:56:27.544Z,22.32
2018-09-23T19:58:56.503Z,22.30
2018-09-23T20:01:25.472Z,22.31
2018-09-23T20:03:54.492Z,22.24
2018-09-23T20:06:23.555Z,22.22
2018-09-23T20:08:52.520Z,22.20
2018-09-23T20:11:21.528Z,22.17
2018-09-23T20:13:50.471Z,22.08
2018-09-23T20:16:19.455Z,22.04
2018-09-23T20:18:48.486Z,22.04
2018-09-23T20:21:17.439Z,21.98
2018-09-23T20:23:54.104Z,21.92
2018-09-23T20:26:24.560Z,21.91
2018-09-23T20:28:53.555Z,21.86
2018-09-23T20:31:22.505Z,21.84
2018-09-23T20:33:51.463Z,21.82
2018-09-23T20:36:23.937Z,21.80
2018-09-23T20:38:55.762Z,21.73
2018-09-23T20:41:24.700Z,21.72
2018-09-23T20:43:53.744Z,21.77
2018-09-23T20:46:23.553Z,21.80
2018-09-23T20:48:52.557Z,21.78
2018-09-23T20:51:21.512Z,21.75
2018-09-23T20:53:50.525Z,21.75
2018-09-23T20:56:19.439Z,21.72
2018-09-23T20:58:48.460Z,21.69
2018-09-23T21:01:17.494Z,21.65
2018-09-23T21:03:46.437Z,21.61
2018-09-23T21:06:15.467Z,21.58
2018-09-23T21:08:44.399Z,21.53
2018-09-23T21:11:13.429Z,21.51
2018-09-23T21:13:42.886Z,21.71
2018-09-23T21:16:11.834Z,21.78
2018-09-23T21:18:41.781Z,21.71
2018-09-23T21:21:18.598Z,21.63
2018-09-23T21:23:47.518Z,21.57
2018-09-23T21:26:16.466Z,21.55
2018-09-23T21:28:45.909Z,21.51
2018-09-23T21:31:14.938Z,21.53
2018-09-23T21:33:43.934Z,21.51
2018-09-23T21:36:12.909Z,21.46
2018-09-23T21:38:41.840Z,21.43
2018-09-23T21:41:10.788Z,21.38
2018-09-23T21:43:39.752Z,21.33
2018-09-23T21:46:09.185Z,21.25
2018-09-23T21:48:38.096Z,21.17
2018-09-23T21:51:07.037Z,21.13
2018-09-23T21:53:35.972Z,21.14
2018-09-23T21:56:05.031Z,21.07
2018-09-23T21:58:34.946Z,21.03
2018-09-23T22:01:03.964Z,21.02
2018-09-23T22:03:33.028Z,21.01
2018-09-23T22:06:01.921Z,21.00
2018-09-23T22:08:30.863Z,20.94
2018-09-23T22:10:59.789Z,21.03
2018-09-23T22:13:28.740Z,20.97
2018-09-23T22:15:57.654Z,20.95
2018-09-23T22:18:26.660Z,20.95
2018-09-23T22:20:55.653Z,20.84
2018-09-23T22:23:24.556Z,20.81
2018-09-23T22:25:53.487Z,20.80
2018-09-23T22:28:22.502Z,20.45
2018-09-23T22:30:51.526Z,20.29
2018-09-23T22:33:20.476Z,20.37
2018-09-23T22:35:49.498Z,20.52
2018-09-23T22:38:18.481Z,20.53
2018-09-23T22:40:47.470Z,20.56
2018-09-23T22:43:16.392Z,20.55
2018-09-23T22:45:45.395Z,20.50
2018-09-23T22:48:14.342Z,20.48
2018-09-23T22:50:43.255Z,20.40
2018-09-23T22:53:12.379Z,20.48
2018-09-23T22:55:42.333Z,20.53
2018-09-23T22:58:11.268Z,20.48
2018-09-23T23:00:40.222Z,20.48
2018-09-23T23:03:09.221Z,20.55
2018-09-23T23:05:38.144Z,20.56
2018-09-23T23:08:07.133Z,20.51
2018-09-23T23:10:36.087Z,20.50
2018-09-23T23:13:05.011Z,20.52
2018-09-23T23:15:33.941Z,20.52
2018-09-23T23:18:02.852Z,20.51
2018-09-23T23:20:31.836Z,20.54
2018-09-23T23:23:00.770Z,20.48
2018-09-23T23:25:29.789Z,20.55
2018-09-23T23:27:59.472Z,20.51
2018-09-23T23:30:28.450Z,20.55
2018-09-23T23:32:57.372Z,20.51
2018-09-23T23:35:26.511Z,20.49
2018-09-23T23:37:55.415Z,20.44
2018-09-23T23:40:24.412Z,20.36
2018-09-23T23:42:53.346Z,20.31
2018-09-23T23:45:22.272Z,20.30
2018-09-23T23:47:51.207Z,20.32
2018-09-23T23:50:20.143Z,20.38
2018-09-23T23:52:49.133Z,20.36
2018-09-23T23:55:18.073Z,20.34
2018-09-23T23:57:47.029Z,20.32
